PDA005 UKOH-UKKK
Flight info
| Callsign | PDA005 |
|---|---|
| Flight time | 1h 9m |
| Altitude | 15000 |
| Route | DCT KVR DCT BRP DCT UKKK |
| Aircraft | AN24/M-SDFG/S |
Departure
| Time | 2026-04-26 18:18 |
|---|---|
| Airport | Kherson International Airport (UKOH) |
Arrival
| Time | 2026-04-26 19:27 |
|---|---|
| Airport | Ihor Sikorsky Kyiv International Airport (Zhuliany) (UKKK) |
| Time | Latitude | Longitude | Altitude | Speed | Heading |
|---|---|---|---|---|---|
| 2026-04-26 18:03 | 46.67164 | 32.50628 | 146 ft | 0 kts | 33° |
| 2026-04-26 18:13 | 46.67181 | 32.50644 | 147 ft | 8 kts | 32° |
| 2026-04-26 18:13 | 46.67214 | 32.50671 | 148 ft | 0 kts | 29° |
| 2026-04-26 18:14 | 46.67241 | 32.50702 | 150 ft | 11 kts | 48° |
| 2026-04-26 18:14 | 46.67268 | 32.50733 | 152 ft | 8 kts | 5° |
| 2026-04-26 18:14 | 46.67317 | 32.50647 | 142 ft | 19 kts | 298° |
| 2026-04-26 18:15 | 46.67376 | 32.50509 | 151 ft | 18 kts | 303° |
| 2026-04-26 18:15 | 46.67382 | 32.50440 | 155 ft | 8 kts | 210° |
| 2026-04-26 18:15 | 46.67283 | 32.50338 | 158 ft | 25 kts | 217° |
| 2026-04-26 18:15 | 46.67096 | 32.50150 | 157 ft | 39 kts | 213° |
| 2026-04-26 18:16 | 46.66829 | 32.49900 | 155 ft | 49 kts | 214° |
| 2026-04-26 18:16 | 46.66700 | 32.49762 | 154 ft | 1 kts | 38° |
| 2026-04-26 18:16 | 46.66724 | 32.49793 | 155 ft | 12 kts | 38° |
| 2026-04-26 18:17 | 46.66749 | 32.49820 | 155 ft | 0 kts | 34° |
| 2026-04-26 18:17 | 46.66878 | 32.49932 | 156 ft | 59 kts | 35° |
| 2026-04-26 18:17 | 46.67413 | 32.50449 | 166 ft | 117 kts | 33° |
| 2026-04-26 18:17 | 46.68141 | 32.51142 | 458 ft | 131 kts | 31° |
| 2026-04-26 18:18 | 46.68963 | 32.51864 | 807 ft | 143 kts | 31° |
| 2026-04-26 18:18 | 46.69850 | 32.52750 | 1157 ft | 156 kts | 37° |
| 2026-04-26 18:18 | 46.70624 | 32.53810 | 1585 ft | 165 kts | 48° |
| 2026-04-26 18:18 | 46.71449 | 32.55167 | 1776 ft | 183 kts | 44° |
| 2026-04-26 18:19 | 46.72346 | 32.56561 | 2018 ft | 196 kts | 46° |
| 2026-04-26 18:19 | 46.73257 | 32.58071 | 2273 ft | 197 kts | 48° |
| 2026-04-26 18:19 | 46.74144 | 32.59625 | 2528 ft | 197 kts | 49° |
| 2026-04-26 18:19 | 46.75019 | 32.61183 | 2779 ft | 197 kts | 49° |
| 2026-04-26 18:20 | 46.75900 | 32.62744 | 3029 ft | 197 kts | 49° |
| 2026-04-26 18:20 | 46.76791 | 32.64317 | 3279 ft | 197 kts | 49° |
| 2026-04-26 18:20 | 46.77643 | 32.65815 | 3517 ft | 197 kts | 49° |
| 2026-04-26 18:20 | 46.78235 | 32.66857 | 3681 ft | 197 kts | 49° |
| 2026-04-26 18:21 | 46.79481 | 32.68856 | 4022 ft | 195 kts | 37° |
| 2026-04-26 18:21 | 46.80639 | 32.69895 | 4315 ft | 192 kts | 27° |
| 2026-04-26 18:21 | 46.81821 | 32.70837 | 4558 ft | 192 kts | 28° |
| 2026-04-26 18:21 | 46.82973 | 32.71758 | 4786 ft | 193 kts | 27° |
| 2026-04-26 18:22 | 46.84168 | 32.72676 | 5022 ft | 194 kts | 26° |
| 2026-04-26 18:22 | 46.85382 | 32.73586 | 5260 ft | 195 kts | 26° |
| 2026-04-26 18:22 | 46.86574 | 32.74477 | 5493 ft | 195 kts | 26° |
| 2026-04-26 18:22 | 46.87798 | 32.75397 | 5731 ft | 196 kts | 26° |
| 2026-04-26 18:23 | 46.88999 | 32.76306 | 5965 ft | 196 kts | 26° |
| 2026-04-26 18:23 | 46.90232 | 32.77238 | 6206 ft | 197 kts | 27° |
| 2026-04-26 18:23 | 46.91430 | 32.78138 | 6439 ft | 197 kts | 27° |
| 2026-04-26 18:23 | 46.92681 | 32.79071 | 6684 ft | 197 kts | 27° |
| 2026-04-26 18:24 | 46.93883 | 32.79963 | 6919 ft | 197 kts | 27° |
| 2026-04-26 18:24 | 46.95136 | 32.80886 | 7162 ft | 198 kts | 27° |
| 2026-04-26 18:24 | 46.96364 | 32.81784 | 7398 ft | 198 kts | 27° |
| 2026-04-26 18:24 | 46.97514 | 32.82618 | 7614 ft | 196 kts | 27° |
| 2026-04-26 18:25 | 46.98690 | 32.83464 | 7822 ft | 194 kts | 27° |
| 2026-04-26 18:25 | 46.99932 | 32.84350 | 8030 ft | 193 kts | 27° |
| 2026-04-26 18:25 | 47.01153 | 32.85217 | 8227 ft | 193 kts | 27° |
| 2026-04-26 18:25 | 47.02336 | 32.86053 | 8411 ft | 193 kts | 27° |
| 2026-04-26 18:26 | 47.03565 | 32.86916 | 8597 ft | 193 kts | 27° |
| 2026-04-26 18:26 | 47.04760 | 32.87753 | 8774 ft | 193 kts | 27° |
| 2026-04-26 18:26 | 47.05949 | 32.88585 | 8950 ft | 194 kts | 27° |
| 2026-04-26 18:26 | 47.07172 | 32.89442 | 9130 ft | 194 kts | 27° |
| 2026-04-26 18:27 | 47.08384 | 32.90295 | 9308 ft | 195 kts | 27° |
| 2026-04-26 18:27 | 47.09610 | 32.91159 | 9488 ft | 195 kts | 25° |
| 2026-04-26 18:27 | 47.10876 | 32.91913 | 9659 ft | 196 kts | 22° |
| 2026-04-26 18:27 | 47.12181 | 32.92645 | 9784 ft | 200 kts | 22° |
| 2026-04-26 18:28 | 47.13481 | 32.93381 | 9916 ft | 202 kts | 23° |
| 2026-04-26 18:28 | 47.14820 | 32.94163 | 10059 ft | 204 kts | 24° |
| 2026-04-26 18:28 | 47.16135 | 32.94946 | 10206 ft | 205 kts | 24° |
| 2026-04-26 18:28 | 47.17471 | 32.95748 | 10360 ft | 206 kts | 24° |
| 2026-04-26 18:29 | 47.18782 | 32.96537 | 10513 ft | 206 kts | 24° |
| 2026-04-26 18:29 | 47.20136 | 32.97353 | 10670 ft | 207 kts | 24° |
| 2026-04-26 18:29 | 47.21479 | 32.98166 | 10826 ft | 207 kts | 24° |
| 2026-04-26 18:29 | 47.22802 | 32.98969 | 10980 ft | 208 kts | 24° |
| 2026-04-26 18:30 | 47.24159 | 32.99796 | 11138 ft | 208 kts | 24° |
| 2026-04-26 18:30 | 47.25545 | 33.00449 | 11314 ft | 208 kts | 13° |
| 2026-04-26 18:30 | 47.26949 | 33.00847 | 11488 ft | 207 kts | 12° |
| 2026-04-26 18:30 | 47.28383 | 33.01246 | 11641 ft | 208 kts | 12° |
| 2026-04-26 18:31 | 47.29810 | 33.01636 | 11790 ft | 209 kts | 12° |
| 2026-04-26 18:31 | 47.31257 | 33.02026 | 11943 ft | 209 kts | 12° |
| 2026-04-26 18:31 | 47.32720 | 33.02421 | 12097 ft | 209 kts | 12° |
| 2026-04-26 18:31 | 47.34147 | 33.02809 | 12248 ft | 210 kts | 12° |
| 2026-04-26 18:32 | 47.35582 | 33.03202 | 12399 ft | 210 kts | 12° |
| 2026-04-26 18:32 | 47.37033 | 33.03603 | 12550 ft | 210 kts | 12° |
| 2026-04-26 18:32 | 47.38473 | 33.04001 | 12700 ft | 210 kts | 12° |
| 2026-04-26 18:32 | 47.39892 | 33.04394 | 12848 ft | 209 kts | 12° |
| 2026-04-26 18:33 | 47.41324 | 33.04791 | 12994 ft | 209 kts | 12° |
| 2026-04-26 18:33 | 47.42767 | 33.05193 | 13140 ft | 209 kts | 12° |
| 2026-04-26 18:33 | 47.44212 | 33.05597 | 13285 ft | 209 kts | 12° |
| 2026-04-26 18:33 | 47.45634 | 33.05905 | 13439 ft | 208 kts | 8° |
| 2026-04-26 18:34 | 47.47092 | 33.06158 | 13586 ft | 207 kts | 8° |
| 2026-04-26 18:34 | 47.48515 | 33.06404 | 13720 ft | 207 kts | 9° |
| 2026-04-26 18:34 | 47.49947 | 33.06667 | 13852 ft | 207 kts | 9° |
| 2026-04-26 18:34 | 47.51372 | 33.06943 | 13981 ft | 207 kts | 9° |
| 2026-04-26 18:35 | 47.52815 | 33.07228 | 14110 ft | 207 kts | 9° |
| 2026-04-26 18:35 | 47.54248 | 33.07511 | 14239 ft | 207 kts | 9° |
| 2026-04-26 18:35 | 47.55655 | 33.07789 | 14364 ft | 207 kts | 9° |
| 2026-04-26 18:35 | 47.57097 | 33.08074 | 14491 ft | 206 kts | 9° |
| 2026-04-26 18:36 | 47.58522 | 33.08357 | 14615 ft | 206 kts | 9° |
| 2026-04-26 18:36 | 47.59963 | 33.08645 | 14739 ft | 206 kts | 9° |
| 2026-04-26 18:36 | 47.61377 | 33.08929 | 14862 ft | 205 kts | 8° |
| 2026-04-26 18:36 | 47.62775 | 33.09155 | 14995 ft | 204 kts | 7° |
| 2026-04-26 18:37 | 47.64215 | 33.09357 | 15116 ft | 204 kts | 7° |
| 2026-04-26 18:37 | 47.65625 | 33.09576 | 15228 ft | 204 kts | 8° |
| 2026-04-26 18:37 | 47.67013 | 33.09819 | 15336 ft | 204 kts | 9° |
| 2026-04-26 18:37 | 47.68441 | 33.10086 | 15441 ft | 204 kts | 9° |
| 2026-04-26 18:38 | 47.69867 | 33.10360 | 15396 ft | 212 kts | 9° |
| 2026-04-26 18:38 | 47.71359 | 33.10646 | 15354 ft | 219 kts | 9° |
| 2026-04-26 18:38 | 47.72897 | 33.10941 | 15339 ft | 224 kts | 9° |
| 2026-04-26 18:38 | 47.74455 | 33.11243 | 15283 ft | 230 kts | 9° |
| 2026-04-26 18:39 | 47.76069 | 33.11562 | 15181 ft | 237 kts | 9° |
| 2026-04-26 18:39 | 47.77739 | 33.11895 | 15102 ft | 242 kts | 9° |
| 2026-04-26 18:39 | 47.79434 | 33.12238 | 15035 ft | 246 kts | 9° |
| 2026-04-26 18:39 | 47.81111 | 33.12581 | 15022 ft | 246 kts | 9° |
| 2026-04-26 18:40 | 47.82798 | 33.12961 | 15108 ft | 243 kts | 11° |
| 2026-04-26 18:40 | 47.84479 | 33.13486 | 15051 ft | 247 kts | 13° |
| 2026-04-26 18:40 | 47.86199 | 33.13992 | 14962 ft | 251 kts | 12° |
| 2026-04-26 18:40 | 47.87899 | 33.14500 | 15017 ft | 248 kts | 13° |
| 2026-04-26 18:41 | 47.89563 | 33.15062 | 15049 ft | 248 kts | 14° |
| 2026-04-26 18:41 | 47.91243 | 33.15665 | 14987 ft | 251 kts | 14° |
| 2026-04-26 18:41 | 47.92951 | 33.16284 | 14989 ft | 251 kts | 14° |
| 2026-04-26 18:41 | 47.94658 | 33.16899 | 15008 ft | 251 kts | 14° |
| 2026-04-26 18:42 | 47.96369 | 33.17516 | 15005 ft | 251 kts | 14° |
| 2026-04-26 18:42 | 47.98056 | 33.18125 | 15011 ft | 252 kts | 14° |
| 2026-04-26 18:42 | 47.99780 | 33.18750 | 15008 ft | 252 kts | 14° |
| 2026-04-26 18:42 | 48.01489 | 33.19374 | 15010 ft | 252 kts | 14° |
| 2026-04-26 18:43 | 48.03195 | 33.19998 | 15009 ft | 252 kts | 14° |
| 2026-04-26 18:43 | 48.04903 | 33.20626 | 15004 ft | 253 kts | 14° |
| 2026-04-26 18:43 | 48.06612 | 33.21246 | 15007 ft | 253 kts | 10° |
| 2026-04-26 18:43 | 48.08360 | 33.21463 | 15047 ft | 251 kts | 358° |
| 2026-04-26 18:44 | 48.10022 | 33.21006 | 14977 ft | 254 kts | 340° |
| 2026-04-26 18:44 | 48.11554 | 33.19714 | 14926 ft | 255 kts | 322° |
| 2026-04-26 18:44 | 48.12947 | 33.18133 | 15036 ft | 250 kts | 324° |
| 2026-04-26 18:44 | 48.14355 | 33.16595 | 15014 ft | 252 kts | 323° |
| 2026-04-26 18:45 | 48.15752 | 33.15025 | 14963 ft | 254 kts | 323° |
| 2026-04-26 18:45 | 48.17160 | 33.13397 | 15030 ft | 251 kts | 322° |
| 2026-04-26 18:45 | 48.18545 | 33.11783 | 15024 ft | 252 kts | 322° |
| 2026-04-26 18:45 | 48.19927 | 33.10178 | 14967 ft | 255 kts | 322° |
| 2026-04-26 18:46 | 48.22453 | 33.07260 | 15048 ft | 251 kts | 323° |
| 2026-04-26 18:46 | 48.23851 | 33.05654 | 14977 ft | 255 kts | 323° |
| 2026-04-26 18:46 | 48.25268 | 33.04027 | 15000 ft | 253 kts | 323° |
| 2026-04-26 18:47 | 48.26676 | 33.02414 | 15052 ft | 251 kts | 323° |
| 2026-04-26 18:47 | 48.28032 | 33.00861 | 14984 ft | 255 kts | 323° |
| 2026-04-26 18:47 | 48.29449 | 32.99236 | 14989 ft | 254 kts | 323° |
| 2026-04-26 18:47 | 48.30840 | 32.97639 | 15048 ft | 251 kts | 323° |
| 2026-04-26 18:48 | 48.32217 | 32.96066 | 14994 ft | 254 kts | 323° |
| 2026-04-26 18:48 | 48.33649 | 32.94431 | 14976 ft | 255 kts | 323° |
| 2026-04-26 18:48 | 48.35040 | 32.92844 | 15043 ft | 252 kts | 323° |
| 2026-04-26 18:48 | 48.36462 | 32.91225 | 15002 ft | 254 kts | 323° |
| 2026-04-26 18:49 | 48.37882 | 32.89608 | 14968 ft | 255 kts | 323° |
| 2026-04-26 18:49 | 48.39301 | 32.87990 | 15040 ft | 252 kts | 323° |
| 2026-04-26 18:49 | 48.40705 | 32.86395 | 15011 ft | 254 kts | 323° |
| 2026-04-26 18:49 | 48.42133 | 32.84774 | 14964 ft | 256 kts | 323° |
| 2026-04-26 18:50 | 48.43546 | 32.83170 | 15036 ft | 252 kts | 323° |
| 2026-04-26 18:50 | 48.44938 | 32.81596 | 15021 ft | 254 kts | 323° |
| 2026-04-26 18:50 | 48.46381 | 32.79963 | 14964 ft | 256 kts | 323° |
| 2026-04-26 18:50 | 48.47789 | 32.78368 | 15026 ft | 253 kts | 323° |
| 2026-04-26 18:51 | 48.49198 | 32.76776 | 15031 ft | 253 kts | 324° |
| 2026-04-26 18:51 | 48.50621 | 32.75172 | 14964 ft | 256 kts | 324° |
| 2026-04-26 18:51 | 48.52027 | 32.73584 | 15021 ft | 253 kts | 324° |
| 2026-04-26 18:51 | 48.53435 | 32.71999 | 15038 ft | 253 kts | 324° |
| 2026-04-26 18:52 | 48.54873 | 32.70381 | 14972 ft | 256 kts | 324° |
| 2026-04-26 18:52 | 48.56285 | 32.68792 | 15008 ft | 254 kts | 324° |
| 2026-04-26 18:52 | 48.57686 | 32.67219 | 15048 ft | 252 kts | 324° |
| 2026-04-26 18:52 | 48.59132 | 32.65598 | 14978 ft | 255 kts | 324° |
| 2026-04-26 18:53 | 48.60545 | 32.64012 | 14996 ft | 254 kts | 324° |
| 2026-04-26 18:53 | 48.61967 | 32.62419 | 15049 ft | 252 kts | 324° |
| 2026-04-26 18:53 | 48.63395 | 32.60823 | 14987 ft | 255 kts | 324° |
| 2026-04-26 18:53 | 48.64838 | 32.59211 | 14985 ft | 255 kts | 324° |
| 2026-04-26 18:54 | 48.66242 | 32.57642 | 15050 ft | 252 kts | 324° |
| 2026-04-26 18:54 | 48.67645 | 32.56080 | 14997 ft | 255 kts | 324° |
| 2026-04-26 18:54 | 48.69042 | 32.54523 | 14973 ft | 255 kts | 324° |
| 2026-04-26 18:54 | 48.70454 | 32.52950 | 15043 ft | 252 kts | 324° |
| 2026-04-26 18:55 | 48.71847 | 32.51403 | 15009 ft | 254 kts | 324° |
| 2026-04-26 18:55 | 48.73279 | 32.49813 | 14966 ft | 256 kts | 324° |
| 2026-04-26 18:55 | 48.74678 | 32.48259 | 15029 ft | 253 kts | 324° |
| 2026-04-26 18:55 | 48.76044 | 32.46747 | 15028 ft | 253 kts | 324° |
| 2026-04-26 18:56 | 48.77474 | 32.45165 | 14963 ft | 256 kts | 324° |
| 2026-04-26 18:56 | 48.78881 | 32.43607 | 15022 ft | 253 kts | 324° |
| 2026-04-26 18:56 | 48.80315 | 32.42023 | 15037 ft | 253 kts | 325° |
| 2026-04-26 18:56 | 48.81709 | 32.40486 | 14972 ft | 255 kts | 325° |
| 2026-04-26 18:57 | 48.83118 | 32.38930 | 15009 ft | 253 kts | 325° |
| 2026-04-26 18:57 | 48.84061 | 32.37890 | 15047 ft | 252 kts | 325° |
| 2026-04-26 18:57 | 48.85955 | 32.35807 | 14979 ft | 255 kts | 325° |
| 2026-04-26 18:57 | 48.87385 | 32.34233 | 14989 ft | 254 kts | 324° |
| 2026-04-26 18:58 | 48.88804 | 32.32655 | 15014 ft | 253 kts | 324° |
| 2026-04-26 18:58 | 48.90215 | 32.31086 | 15003 ft | 254 kts | 324° |
| 2026-04-26 18:58 | 48.91633 | 32.29514 | 15011 ft | 254 kts | 324° |
| 2026-04-26 18:58 | 48.93051 | 32.27952 | 15005 ft | 254 kts | 324° |
| 2026-04-26 18:59 | 48.94477 | 32.26385 | 15008 ft | 254 kts | 324° |
| 2026-04-26 18:59 | 48.95867 | 32.24858 | 15003 ft | 254 kts | 324° |
| 2026-04-26 18:59 | 48.97310 | 32.23276 | 15008 ft | 254 kts | 324° |
| 2026-04-26 18:59 | 48.98726 | 32.21725 | 15007 ft | 254 kts | 324° |
| 2026-04-26 19:00 | 49.00144 | 32.20173 | 15009 ft | 254 kts | 324° |
| 2026-04-26 19:00 | 49.01551 | 32.18636 | 15006 ft | 254 kts | 324° |
| 2026-04-26 19:00 | 49.02978 | 32.17077 | 15008 ft | 254 kts | 325° |
| 2026-04-26 19:00 | 49.04382 | 32.15545 | 15007 ft | 254 kts | 325° |
| 2026-04-26 19:01 | 49.05793 | 32.14007 | 15004 ft | 254 kts | 325° |
| 2026-04-26 19:01 | 49.07179 | 32.12497 | 15007 ft | 254 kts | 325° |
| 2026-04-26 19:01 | 49.08597 | 32.10954 | 15003 ft | 254 kts | 325° |
| 2026-04-26 19:01 | 49.10013 | 32.09415 | 15012 ft | 253 kts | 325° |
| 2026-04-26 19:02 | 49.11485 | 32.07830 | 14951 ft | 256 kts | 325° |
| 2026-04-26 19:02 | 49.12903 | 32.06309 | 15001 ft | 254 kts | 325° |
| 2026-04-26 19:02 | 49.14332 | 32.04776 | 15036 ft | 252 kts | 325° |
| 2026-04-26 19:02 | 49.15294 | 32.03743 | 15028 ft | 253 kts | 325° |
| 2026-04-26 19:03 | 49.17176 | 32.01720 | 15012 ft | 254 kts | 325° |
| 2026-04-26 19:03 | 49.18595 | 32.00194 | 15002 ft | 254 kts | 325° |
| 2026-04-26 19:03 | 49.20029 | 31.98653 | 15011 ft | 254 kts | 325° |
| 2026-04-26 19:03 | 49.21464 | 31.97115 | 14998 ft | 255 kts | 325° |
| 2026-04-26 19:04 | 49.22911 | 31.95567 | 15015 ft | 254 kts | 326° |
| 2026-04-26 19:04 | 49.24304 | 31.94080 | 15001 ft | 254 kts | 326° |
| 2026-04-26 19:04 | 49.25747 | 31.92540 | 15015 ft | 254 kts | 326° |
| 2026-04-26 19:04 | 49.27202 | 31.90990 | 15003 ft | 254 kts | 326° |
| 2026-04-26 19:05 | 49.30086 | 31.87921 | 15003 ft | 255 kts | 326° |
| 2026-04-26 19:05 | 49.31526 | 31.86391 | 15013 ft | 254 kts | 326° |
| 2026-04-26 19:05 | 49.33026 | 31.84799 | 15001 ft | 255 kts | 326° |
| 2026-04-26 19:06 | 49.34482 | 31.83255 | 15012 ft | 254 kts | 326° |
| 2026-04-26 19:06 | 49.35947 | 31.81705 | 15006 ft | 255 kts | 326° |
| 2026-04-26 19:06 | 49.37401 | 31.80164 | 15007 ft | 255 kts | 326° |
| 2026-04-26 19:06 | 49.38874 | 31.78602 | 15007 ft | 255 kts | 326° |
| 2026-04-26 19:07 | 49.40292 | 31.77101 | 15008 ft | 255 kts | 326° |
| 2026-04-26 19:07 | 49.41757 | 31.75553 | 15008 ft | 255 kts | 326° |
| 2026-04-26 19:07 | 49.43228 | 31.74003 | 15010 ft | 255 kts | 326° |
| 2026-04-26 19:07 | 49.44680 | 31.72475 | 15005 ft | 255 kts | 326° |
| 2026-04-26 19:08 | 49.46112 | 31.70970 | 15008 ft | 255 kts | 326° |
| 2026-04-26 19:08 | 49.47469 | 31.69545 | 15007 ft | 255 kts | 326° |
| 2026-04-26 19:08 | 49.48975 | 31.67965 | 15010 ft | 254 kts | 326° |
| 2026-04-26 19:08 | 49.50452 | 31.66417 | 15002 ft | 255 kts | 326° |
| 2026-04-26 19:09 | 49.51927 | 31.64873 | 15013 ft | 255 kts | 326° |
| 2026-04-26 19:09 | 49.53405 | 31.63327 | 15004 ft | 255 kts | 326° |
| 2026-04-26 19:09 | 49.54876 | 31.61791 | 15012 ft | 255 kts | 326° |
| 2026-04-26 19:09 | 49.56336 | 31.60268 | 15006 ft | 255 kts | 327° |
| 2026-04-26 19:10 | 49.57782 | 31.58761 | 15010 ft | 255 kts | 327° |
| 2026-04-26 19:10 | 49.59238 | 31.57245 | 15004 ft | 255 kts | 327° |
| 2026-04-26 19:10 | 49.60725 | 31.55698 | 15010 ft | 255 kts | 327° |
| 2026-04-26 19:10 | 49.62187 | 31.54179 | 15006 ft | 255 kts | 327° |
| 2026-04-26 19:11 | 49.63643 | 31.52668 | 15011 ft | 255 kts | 327° |
| 2026-04-26 19:11 | 49.65072 | 31.51187 | 15006 ft | 255 kts | 327° |
| 2026-04-26 19:11 | 49.66511 | 31.49696 | 15010 ft | 254 kts | 327° |
| 2026-04-26 19:11 | 49.67947 | 31.48210 | 15007 ft | 255 kts | 327° |
| 2026-04-26 19:12 | 49.69390 | 31.46719 | 15010 ft | 254 kts | 327° |
| 2026-04-26 19:12 | 49.70855 | 31.45207 | 15004 ft | 255 kts | 327° |
| 2026-04-26 19:12 | 49.72319 | 31.43698 | 15011 ft | 254 kts | 327° |
| 2026-04-26 19:12 | 49.73758 | 31.42215 | 15001 ft | 255 kts | 327° |
| 2026-04-26 19:13 | 49.75185 | 31.40746 | 15012 ft | 254 kts | 327° |
| 2026-04-26 19:13 | 49.76505 | 31.39389 | 15006 ft | 255 kts | 327° |
| 2026-04-26 19:13 | 49.78029 | 31.37824 | 15013 ft | 254 kts | 327° |
| 2026-04-26 19:13 | 49.79485 | 31.36330 | 15004 ft | 255 kts | 327° |
| 2026-04-26 19:14 | 49.80944 | 31.34835 | 15016 ft | 254 kts | 327° |
| 2026-04-26 19:14 | 49.82396 | 31.33337 | 14980 ft | 256 kts | 326° |
| 2026-04-26 19:14 | 49.83699 | 31.31984 | 14847 ft | 258 kts | 326° |
| 2026-04-26 19:14 | 49.84707 | 31.30938 | 14617 ft | 264 kts | 326° |
| 2026-04-26 19:15 | 49.86766 | 31.28810 | 14187 ft | 273 kts | 327° |
| 2026-04-26 19:15 | 49.88331 | 31.27202 | 13886 ft | 277 kts | 327° |
| 2026-04-26 19:15 | 49.89962 | 31.25533 | 13591 ft | 280 kts | 327° |
| 2026-04-26 19:15 | 49.91549 | 31.23912 | 13318 ft | 282 kts | 327° |
| 2026-04-26 19:16 | 49.93167 | 31.22261 | 13050 ft | 283 kts | 327° |
| 2026-04-26 19:16 | 49.94794 | 31.20604 | 12789 ft | 284 kts | 327° |
| 2026-04-26 19:16 | 49.96396 | 31.18974 | 12540 ft | 284 kts | 327° |
| 2026-04-26 19:16 | 49.98060 | 31.17284 | 12264 ft | 285 kts | 327° |
| 2026-04-26 19:17 | 49.99717 | 31.15602 | 11926 ft | 288 kts | 327° |
| 2026-04-26 19:17 | 50.01385 | 31.13912 | 11576 ft | 291 kts | 327° |
| 2026-04-26 19:17 | 50.03080 | 31.12196 | 11093 ft | 297 kts | 327° |
| 2026-04-26 19:17 | 50.04810 | 31.10443 | 10611 ft | 301 kts | 327° |
| 2026-04-26 19:18 | 50.06575 | 31.08655 | 10136 ft | 304 kts | 327° |
| 2026-04-26 19:18 | 50.08360 | 31.06849 | 9667 ft | 305 kts | 327° |
| 2026-04-26 19:18 | 50.10120 | 31.05073 | 9215 ft | 305 kts | 327° |
| 2026-04-26 19:18 | 50.11836 | 31.03356 | 8701 ft | 308 kts | 328° |
| 2026-04-26 19:19 | 50.13614 | 31.01583 | 8160 ft | 309 kts | 327° |
| 2026-04-26 19:19 | 50.15363 | 30.99835 | 7633 ft | 310 kts | 328° |
| 2026-04-26 19:19 | 50.17694 | 30.97510 | 6945 ft | 310 kts | 328° |
| 2026-04-26 19:19 | 50.19461 | 30.95749 | 6430 ft | 309 kts | 328° |
| 2026-04-26 19:20 | 50.21245 | 30.93972 | 5916 ft | 308 kts | 328° |
| 2026-04-26 19:20 | 50.21822 | 30.93398 | 5752 ft | 308 kts | 328° |
| 2026-04-26 19:20 | 50.24782 | 30.90456 | 4911 ft | 305 kts | 328° |
| 2026-04-26 19:20 | 50.26594 | 30.88657 | 4405 ft | 304 kts | 328° |
| 2026-04-26 19:21 | 50.28375 | 30.86891 | 3910 ft | 302 kts | 328° |
| 2026-04-26 19:21 | 50.30123 | 30.85157 | 3519 ft | 296 kts | 328° |
| 2026-04-26 19:21 | 50.31789 | 30.83500 | 3295 ft | 275 kts | 328° |
| 2026-04-26 19:21 | 50.33337 | 30.81960 | 3061 ft | 257 kts | 328° |
| 2026-04-26 19:22 | 50.34801 | 30.80509 | 2805 ft | 244 kts | 328° |
| 2026-04-26 19:22 | 50.36196 | 30.79126 | 2532 ft | 234 kts | 328° |
| 2026-04-26 19:22 | 50.37563 | 30.77750 | 2450 ft | 229 kts | 324° |
| 2026-04-26 19:22 | 50.38679 | 30.76102 | 2617 ft | 221 kts | 308° |
| 2026-04-26 19:23 | 50.39389 | 30.74025 | 2668 ft | 220 kts | 293° |
| 2026-04-26 19:23 | 50.40050 | 30.71828 | 2599 ft | 225 kts | 296° |
| 2026-04-26 19:23 | 50.40725 | 30.69636 | 2635 ft | 221 kts | 296° |
| 2026-04-26 19:23 | 50.41321 | 30.67509 | 2735 ft | 214 kts | 288° |
| 2026-04-26 19:24 | 50.41387 | 30.65178 | 2598 ft | 216 kts | 261° |
| 2026-04-26 19:24 | 50.41042 | 30.62888 | 2610 ft | 212 kts | 259° |
| 2026-04-26 19:24 | 50.40570 | 30.58293 | 2273 ft | 214 kts | 272° |
| 2026-04-26 19:25 | 50.40673 | 30.56210 | 2213 ft | 184 kts | 271° |
| 2026-04-26 19:25 | 50.40664 | 30.55556 | 2041 ft | 182 kts | 269° |
| 2026-04-26 19:25 | 50.40481 | 30.52399 | 1370 ft | 164 kts | 267° |
| 2026-04-26 19:25 | 50.40438 | 30.50697 | 1050 ft | 157 kts | 269° |
| 2026-04-26 19:26 | 50.40333 | 30.49039 | 921 ft | 156 kts | 264° |
| 2026-04-26 19:26 | 50.40270 | 30.47372 | 779 ft | 149 kts | 271° |
| 2026-04-26 19:26 | 50.40211 | 30.45840 | 568 ft | 132 kts | 269° |
| 2026-04-26 19:26 | 50.40145 | 30.44540 | 567 ft | 112 kts | 263° |
| 2026-04-26 19:27 | 50.40099 | 30.43633 | 567 ft | 47 kts | 271° |
| 2026-04-26 19:27 | 50.40114 | 30.43526 | 567 ft | 0 kts | 302° |
| 2026-04-26 19:27 | 50.40127 | 30.43509 | 567 ft | 4 kts | 360° |
| 2026-04-26 19:27 | 50.40207 | 30.43556 | 567 ft | 19 kts | 23° |
| 2026-04-26 19:28 | 50.40239 | 30.43579 | 567 ft | 7 kts | 22° |
| 2026-04-26 19:28 | 50.40335 | 30.43644 | 567 ft | 16 kts | 23° |
| 2026-04-26 19:28 | 50.40414 | 30.43738 | 567 ft | 17 kts | 36° |
| 2026-04-26 19:28 | 50.40559 | 30.43842 | 567 ft | 30 kts | 24° |
| 2026-04-26 19:29 | 50.40703 | 30.43944 | 567 ft | 15 kts | 23° |
| 2026-04-26 19:29 | 50.40734 | 30.43965 | 567 ft | 5 kts | 23° |
| 2026-04-26 19:29 | 50.40821 | 30.44025 | 567 ft | 21 kts | 25° |
| 2026-04-26 19:29 | 50.40882 | 30.44069 | 567 ft | 11 kts | 25° |
| 2026-04-26 19:30 | 50.40958 | 30.44093 | 567 ft | 15 kts | 335° |
| 2026-04-26 19:30 | 50.40978 | 30.44053 | 567 ft | 0 kts | 259° |
| 2026-04-26 19:30 | 50.40969 | 30.44036 | 567 ft | 4 kts | 206° |
| 2026-04-26 19:30 | 50.40968 | 30.44035 | 567 ft | 0 kts | 204° |